This is the latest recevied weather packets stored in our database for station/object SQ9RHX-11. If no packets are shown the sender has not sent any weather packets the latest 10 day(s).
| Time | Temp. | Humidity | Pressure | Rain* | Wind** | Luminosity | Snow |
|---|---|---|---|---|---|---|---|
| 1778068831 | 22.78° C | 44% | 1006.9 hPa | - | - | - | - |
| 1778067032 | 21.67° C | 46% | 1006.9 hPa | - | - | - | - |
| 1778065232 | 21.67° C | 47% | 1006.9 hPa | - | - | - | - |
| 1778063434 | 21.67° C | 47% | 1006.8 hPa | - | - | - | - |
| 1778061635 | 21.67° C | 48% | 1007.1 hPa | - | - | - | - |
| 1778059834 | 21.11° C | 53% | 1006.8 hPa | - | - | - | - |
| 1778058034 | 19.44° C | 54% | 1006.8 hPa | - | - | - | - |
| 1778056236 | 21.11° C | 54% | 1006.7 hPa | - | - | - | - |
| 1778054436 | 20° C | 57% | 1006.7 hPa | - | - | - | - |
| 1778052637 | 20° C | 60% | 1006.5 hPa | - | - | - | - |
| 1778050838 | 19.44° C | 61% | 1006.5 hPa | - | - | - | - |
| 1778049038 | 17.22° C | 68% | 1006.3 hPa | - | - | - | - |
| 1778047239 | 14.44° C | 72% | 1006.3 hPa | - | - | - | - |
| 1778045439 | 13.33° C | 75% | 1006 hPa | - | - | - | - |
| 1778043640 | 12.78° C | 79% | 1006.1 hPa | - | - | - | - |
| 1778041839 | 11.11° C | 82% | 1005.8 hPa | - | - | - | - |
| 1778040040 | 9.44° C | 82% | 1005.7 hPa | - | - | - | - |
| 1778038240 | 8.89° C | 82% | 1005 hPa | - | - | - | - |
| 1778036441 | 8.89° C | 81% | 1005.1 hPa | - | - | - | - |
| 1778034641 | 9.44° C | 81% | 1005.8 hPa | - | - | - | - |
| 1778032841 | 9.44° C | 80% | 1005.7 hPa | - | - | - | - |
| 1778031041 | 8.89° C | 79% | 1005.7 hPa | - | - | - | - |
| 1778029242 | 9.44° C | 77% | 1005.7 hPa | - | - | - | - |
| 1778027444 | 10° C | 77% | 1005.5 hPa | - | - | - | - |
| 1778025645 | 10.56° C | 75% | 1005.6 hPa | - | - | - | - |
* Rain since midnight (hover to see other rain measurements)
** Current wind speed in m/s (hover to see current wind gust speed)